Time;durP1;ratioP1;P1;durP2;ratioP2;P2;SDS_P1;SDS_P2;PMS_P1;PMS_P2;Temp;Humidity;BMP_temperature;BMP_pressure;BME280_temperature;BME280_humidity;BME280_pressure;Samples;Min_cycle;Max_cycle;Signal;HPM_P1;HPM_P2
2021/06/20 00:00:23;;;;;;;4.22;2.80;;;;;;;19.67;76.81;98607.34;5135355;27;20034;-79
2021/06/20 00:02:49;;;;;;;3.33;3.03;;;;;;;19.72;77.01;98610.97;5115919;27;20421;-81
2021/06/20 00:05:26;;;;;;;3.85;3.50;;;;;;;19.70;77.01;98605.91;5116983;27;20019;-80
2021/06/20 00:07:52;;;;;;;7.00;3.50;;;;;;;19.74;76.88;98609.47;5116665;27;20038;-80
2021/06/20 00:10:24;;;;;;;3.88;3.40;;;;;;;19.75;76.51;98604.84;5116402;27;20463;-79
2021/06/20 00:12:49;;;;;;;6.95;3.28;;;;;;;19.75;76.97;98600.22;5133755;27;20087;-78
2021/06/20 00:15:19;;;;;;;3.05;2.85;;;;;;;19.77;76.71;98594.44;5116464;27;20441;-78
2021/06/20 00:17:45;;;;;;;5.18;3.42;;;;;;;19.76;76.70;98593.66;5115778;27;20043;-78
2021/06/20 00:20:14;;;;;;;3.78;3.45;;;;;;;19.76;76.84;98593.66;5116238;27;20072;-78
2021/06/20 00:22:40;;;;;;;4.60;3.78;;;;;;;19.76;76.67;98590.13;5115689;27;20039;-77
2021/06/20 00:25:06;;;;;;;5.63;3.97;;;;;;;19.73;76.39;98585.41;5114691;27;20454;-78
2021/06/20 00:27:32;;;;;;;3.85;2.83;;;;;;;19.68;76.34;98576.38;5132581;27;20031;-78
2021/06/20 00:29:57;;;;;;;3.88;3.47;;;;;;;19.66;76.38;98583.28;5116548;27;20076;-78
2021/06/20 00:32:23;;;;;;;5.20;3.00;;;;;;;19.63;76.61;98584.78;5115890;27;20027;-78
2021/06/20 00:34:48;;;;;;;5.57;2.75;;;;;;;19.61;76.72;98586.28;5134130;27;20470;-77
2021/06/20 00:37:14;;;;;;;9.48;3.20;;;;;;;19.58;76.66;98590.47;5115861;27;20083;-78
2021/06/20 00:39:39;;;;;;;4.20;2.72;;;;;;;19.52;76.98;98592.63;5115964;27;20118;-77
2021/06/20 00:42:05;;;;;;;4.18;2.92;;;;;;;19.49;77.15;98585.22;5134301;27;20023;-77
2021/06/20 00:44:30;;;;;;;3.22;2.90;;;;;;;19.44;77.05;98577.31;5115881;27;20019;-77
2021/06/20 00:46:56;;;;;;;6.93;3.40;;;;;;;19.39;77.43;98584.91;5115840;27;20473;-78
2021/06/20 00:49:21;;;;;;;6.43;3.47;;;;;;;19.33;77.75;98585.19;5115918;27;20105;-78
2021/06/20 00:51:47;;;;;;;3.95;3.40;;;;;;;19.27;78.16;98588.47;5133850;27;20025;-78
2021/06/20 00:54:12;;;;;;;6.65;3.75;;;;;;;19.21;78.49;98596.03;5115786;27;20023;-78
2021/06/20 00:56:39;;;;;;;5.75;3.08;;;;;;;19.17;78.55;98592.47;5115252;27;20035;-78
2021/06/20 00:59:04;;;;;;;5.90;3.03;;;;;;;19.14;78.28;98579.56;5115605;27;20110;-78
2021/06/20 01:01:31;;;;;;;4.55;3.03;;;;;;;19.16;77.98;98591.69;5115668;27;20180;-78
2021/06/20 01:03:57;;;;;;;3.53;2.80;;;;;;;19.14;77.67;98585.81;5115763;27;20031;-77
2021/06/20 01:06:24;;;;;;;3.42;2.47;;;;;;;19.14;77.64;98585.00;5133824;27;20409;-78
2021/06/20 01:08:50;;;;;;;4.05;2.72;;;;;;;19.11;77.44;98588.41;5114946;27;20047;-77
2021/06/20 01:11:15;;;;;;;3.92;3.33;;;;;;;19.13;78.00;98594.28;5133798;27;20479;-79
2021/06/20 01:13:43;;;;;;;4.25;3.17;;;;;;;19.09;78.42;98599.59;5114984;27;20022;-78
2021/06/20 01:16:09;;;;;;;4.68;3.72;;;;;;;19.06;79.10;98594.84;5114913;27;20027;-79
2021/06/20 01:18:34;;;;;;;6.05;4.13;;;;;;;19.03;79.15;98593.63;5114925;27;20043;-79
2021/06/20 01:21:00;;;;;;;8.32;3.67;;;;;;;19.05;79.42;98604.13;5115095;27;20035;-79
2021/06/20 01:23:25;;;;;;;8.48;3.80;;;;;;;19.01;79.26;98601.31;5114937;27;20100;-80
2021/06/20 01:25:51;;;;;;;5.00;3.20;;;;;;;19.04;78.75;98605.25;5092186;28;20052;-79
2021/06/20 01:28:19;;;;;;;3.40;3.10;;;;;;;19.06;78.65;98605.69;5091088;28;20043;-79
2021/06/20 01:30:45;;;;;;;6.53;3.80;;;;;;;19.04;78.99;98613.38;5090930;28;20105;-78
2021/06/20 01:33:12;;;;;;;5.82;3.70;;;;;;;19.04;79.57;98618.78;5092520;28;20456;-79
2021/06/20 01:35:38;;;;;;;8.63;4.85;;;;;;;18.97;80.02;98619.38;5073949;28;20115;-78
2021/06/20 01:38:06;;;;;;;6.00;4.97;;;;;;;18.98;80.42;98625.59;5073708;28;20032;-79
2021/06/20 01:40:32;;;;;;;10.77;5.07;;;;;;;18.96;80.94;98623.22;5074278;28;20490;-78
2021/06/20 01:42:57;;;;;;;10.35;5.03;;;;;;;18.95;81.18;98626.28;5092328;28;20043;-78
2021/06/20 01:45:24;;;;;;;14.73;5.63;;;;;;;18.92;81.27;98627.75;5073945;28;20505;-78
2021/06/20 01:47:51;;;;;;;12.00;4.30;;;;;;;18.88;81.38;98634.94;5073517;28;20027;-78
2021/06/20 01:50:17;;;;;;;8.18;4.60;;;;;;;18.84;81.81;98639.47;5073633;28;20407;-77
2021/06/20 01:52:44;;;;;;;5.78;3.97;;;;;;;18.86;82.04;98634.50;5073336;28;20031;-77
2021/06/20 01:55:12;;;;;;;6.57;4.55;;;;;;;18.86;82.03;98634.50;5092351;28;20034;-77
2021/06/20 01:57:39;;;;;;;8.82;4.75;;;;;;;18.83;81.85;98633.25;5073621;28;20024;-78
2021/06/20 02:00:11;;;;;;;5.95;4.85;;;;;;;18.80;82.07;98631.25;5091799;28;20093;-78
2021/06/20 02:02:37;;;;;;;7.45;5.35;;;;;;;18.79;82.43;98635.06;5090944;28;20482;-79
2021/06/20 02:05:03;;;;;;;10.57;4.97;;;;;;;18.76;82.55;98634.97;5072811;28;20086;-79
2021/06/20 02:07:28;;;;;;;7.60;5.30;;;;;;;18.75;82.60;98639.59;5073659;28;20090;-78
2021/06/20 02:09:55;;;;;;;6.47;5.05;;;;;;;18.71;83.21;98635.97;5091876;28;20032;-78
2021/06/20 02:12:26;;;;;;;8.98;5.80;;;;;;;18.70;83.27;98642.53;5073427;28;20126;-78
2021/06/20 02:14:52;;;;;;;7.53;4.97;;;;;;;18.66;83.57;98642.44;5073037;28;20028;-78
2021/06/20 02:17:25;;;;;;;5.32;4.82;;;;;;;18.66;83.63;98647.06;5073116;28;20067;-77
2021/06/20 02:19:56;;;;;;;13.52;5.95;;;;;;;18.65;83.63;98648.97;5072535;28;20422;-78
2021/06/20 02:22:23;;;;;;;10.55;4.82;;;;;;;18.64;83.81;98643.88;5091546;28;20111;-78
2021/06/20 02:24:49;;;;;;;5.80;4.72;;;;;;;18.66;83.87;98647.84;5082879;28;20526;-81
2021/06/20 02:27:16;;;;;;;12.18;5.43;;;;;;;18.72;83.58;98649.22;5092157;28;20020;-80
2021/06/20 02:29:42;;;;;;;9.02;6.30;;;;;;;18.78;83.50;98651.69;5092885;28;20038;-80
2021/06/20 02:32:10;;;;;;;7.68;4.93;;;;;;;18.84;83.25;98656.50;5093202;28;20019;-80
2021/06/20 02:34:37;;;;;;;10.75;5.40;;;;;;;18.91;83.03;98652.44;5111204;28;20043;-79
2021/06/20 02:37:05;;;;;;;8.85;4.97;;;;;;;18.96;82.71;98653.03;5093278;28;20072;-79
2021/06/20 02:39:31;;;;;;;14.10;5.90;;;;;;;18.98;82.32;98656.19;5093731;28;20491;-78
2021/06/20 02:41:56;;;;;;;11.48;5.47;;;;;;;19.02;82.16;98653.59;5093554;28;20095;-78
2021/06/20 02:44:22;;;;;;;5.80;5.22;;;;;;;19.04;82.06;98654.03;5093049;28;20027;-81
2021/06/20 02:46:47;;;;;;;9.75;5.20;;;;;;;19.03;81.96;98653.25;5093504;28;20028;-81
2021/06/20 02:49:12;;;;;;;8.02;6.35;;;;;;;19.08;82.01;98660.34;5093366;28;20028;-82
2021/06/20 02:51:42;;;;;;;10.60;5.72;;;;;;;19.13;82.00;98662.03;5093021;28;20039;-81
2021/06/20 02:54:07;;;;;;;11.15;4.97;;;;;;;19.14;81.59;98655.47;5093194;28;20055;-81
2021/06/20 02:56:33;;;;;;;5.22;4.72;;;;;;;19.15;81.51;98663.28;5092689;28;20124;-80
2021/06/20 02:58:58;;;;;;;5.80;4.45;;;;;;;19.18;81.71;98657.16;5092442;28;20035;-80
2021/06/20 03:01:24;;;;;;;9.07;5.30;;;;;;;19.25;81.20;98664.72;5093451;28;20028;-78
2021/06/20 03:03:49;;;;;;;10.05;5.43;;;;;;;19.30;81.24;98667.19;5092945;28;20034;-78
2021/06/20 03:06:15;;;;;;;7.63;5.60;;;;;;;19.35;80.78;98664.22;5093010;28;20022;-78
2021/06/20 03:08:40;;;;;;;6.95;4.75;;;;;;;19.39;80.62;98663.53;5093081;28;20027;-78
2021/06/20 03:11:06;;;;;;;6.97;5.15;;;;;;;19.41;80.52;98653.94;5093264;28;20019;-79
2021/06/20 03:13:31;;;;;;;5.32;4.80;;;;;;;19.42;80.73;98660.13;5092401;28;20031;-80
2021/06/20 03:15:57;;;;;;;7.18;4.65;;;;;;;19.44;80.44;98658.66;5092247;28;20406;-80
2021/06/20 03:18:22;;;;;;;6.40;5.10;;;;;;;19.45;80.47;98652.09;5093094;28;20557;-79
2021/06/20 03:20:48;;;;;;;4.97;4.53;;;;;;;19.48;80.29;98654.13;5092258;28;20019;-79
2021/06/20 03:23:13;;;;;;;5.18;4.50;;;;;;;19.49;79.89;98655.72;5092747;28;20035;-78
2021/06/20 03:25:39;;;;;;;7.45;4.05;;;;;;;19.48;79.10;98656.03;5092391;28;20132;-79
2021/06/20 03:28:06;;;;;;;6.80;4.50;;;;;;;19.48;79.00;98664.19;5092158;28;20023;-78
2021/06/20 03:30:31;;;;;;;8.07;4.90;;;;;;;19.45;79.26;98667.59;5092350;28;20035;-79
2021/06/20 03:32:57;;;;;;;5.47;4.07;;;;;;;19.40;79.73;98665.13;5092716;28;20028;-78
2021/06/20 03:35:22;;;;;;;9.23;4.63;;;;;;;19.33;80.41;98655.66;5111010;28;20379;-78
2021/06/20 03:37:48;;;;;;;10.98;4.32;;;;;;;19.35;79.69;98660.72;5110783;28;20102;-78
2021/06/20 03:40:14;;;;;;;8.70;3.95;;;;;;;19.35;79.75;98666.94;5092728;28;20066;-79
2021/06/20 03:42:39;;;;;;;6.53;3.67;;;;;;;19.40;79.44;98674.03;5092400;28;20042;-78
2021/06/20 03:45:08;;;;;;;5.63;3.88;;;;;;;19.41;79.53;98669.41;5092204;28;20486;-77
2021/06/20 03:47:35;;;;;;;4.43;3.38;;;;;;;19.43;78.97;98669.84;5113123;28;20023;-78
2021/06/20 03:50:02;;;;;;;5.33;3.70;;;;;;;19.44;78.73;98672.22;5095634;28;20046;-79
2021/06/20 03:52:27;;;;;;;5.60;3.65;;;;;;;19.43;78.25;98675.28;5114549;28;20057;-79
2021/06/20 03:54:53;;;;;;;4.43;3.40;;;;;;;19.41;78.15;98663.97;5096010;28;20023;-78
2021/06/20 03:57:19;;;;;;;4.40;2.97;;;;;;;19.42;78.31;98668.28;5096320;28;20474;-78
2021/06/20 03:59:46;;;;;;;6.35;3.47;;;;;;;19.41;77.93;98662.06;5095821;28;20027;-79
2021/06/20 04:02:12;;;;;;;6.93;3.72;;;;;;;19.45;77.56;98668.38;5096293;28;20039;-80
2021/06/20 04:04:40;;;;;;;5.13;2.80;;;;;;;19.47;77.38;98676.16;5095996;28;20436;-80
2021/06/20 04:07:06;;;;;;;3.03;2.72;;;;;;;19.52;77.05;98674.00;5095960;28;20122;-79
2021/06/20 04:09:32;;;;;;;3.10;2.80;;;;;;;19.57;76.77;98672.97;5095756;28;20032;-78
2021/06/20 04:11:57;;;;;;;3.90;3.03;;;;;;;19.61;76.73;98670.34;5095607;28;20027;-79
2021/06/20 04:14:23;;;;;;;4.78;3.47;;;;;;;19.59;76.25;98673.41;5095801;28;20040;-77
2021/06/20 04:16:48;;;;;;;6.30;3.22;;;;;;;19.59;76.17;98673.41;5095708;28;20031;-78
2021/06/20 04:19:13;;;;;;;4.05;3.53;;;;;;;19.61;76.37;98673.06;5114283;28;20073;-78
2021/06/20 04:21:39;;;;;;;4.95;3.25;;;;;;;19.63;76.61;98671.59;5095327;28;20496;-78
2021/06/20 04:24:05;;;;;;;3.25;2.95;;;;;;;19.68;76.01;98678.69;5113276;28;20044;-80
2021/06/20 04:26:30;;;;;;;3.60;2.50;;;;;;;19.72;75.45;98676.84;5093894;28;20135;-79
2021/06/20 04:28:56;;;;;;;5.18;2.47;;;;;;;19.76;74.58;98666.91;5095200;28;20035;-78
2021/06/20 04:31:21;;;;;;;2.53;2.33;;;;;;;19.83;73.96;98669.00;5095773;28;20375;-78
2021/06/20 04:33:47;;;;;;;5.53;3.28;;;;;;;19.82;73.88;98670.94;5094901;28;20031;-78
2021/06/20 04:36:12;;;;;;;3.25;2.85;;;;;;;19.86;73.58;98673.78;5095981;28;20088;-78
2021/06/20 04:38:38;;;;;;;4.55;2.90;;;;;;;19.91;73.29;98673.53;5113707;28;20098;-77
2021/06/20 04:41:06;;;;;;;4.22;2.58;;;;;;;19.91;73.41;98681.66;5095194;28;20034;-79
2021/06/20 04:46:20;;;;;;;4.65;2.90;;;;;;;19.97;73.11;98674.84;5113643;28;20416;-80
2021/06/20 04:48:45;;;;;;;4.13;2.47;;;;;;;20.02;72.71;98667.56;5095167;28;20444;-79
2021/06/20 04:51:11;;;;;;;5.30;2.97;;;;;;;20.08;72.71;98675.13;5113153;28;20024;-77
2021/06/20 04:53:36;;;;;;;4.00;2.97;;;;;;;20.27;73.08;98674.41;5094997;28;20036;-79
2021/06/20 04:56:02;;;;;;;2.60;2.40;;;;;;;20.53;72.54;98678.56;5113128;28;20425;-79
2021/06/20 04:58:27;;;;;;;2.72;2.53;;;;;;;20.93;71.92;98682.19;5094682;28;20081;-79
2021/06/20 05:00:53;;;;;;;5.93;2.60;;;;;;;21.45;70.25;98677.47;5094769;28;20049;-76
2021/06/20 05:03:18;;;;;;;4.38;2.10;;;;;;;22.14;68.22;98676.84;5094867;28;20101;-79
2021/06/20 05:05:44;;;;;;;3.17;2.08;;;;;;;22.94;66.41;98680.84;5095152;28;20035;-80
2021/06/20 05:08:09;;;;;;;2.30;1.83;;;;;;;23.81;63.90;98669.03;5094805;28;20401;-78
2021/06/20 05:10:34;;;;;;;2.30;2.10;;;;;;;24.72;61.75;98678.88;5094541;28;20034;-79
2021/06/20 05:13:00;;;;;;;2.50;1.90;;;;;;;25.55;57.46;98682.06;5094392;28;20027;-78
2021/06/20 05:15:26;;;;;;;2.03;1.80;;;;;;;26.30;54.93;98678.69;5095141;28;20027;-79
2021/06/20 05:17:53;;;;;;;6.35;1.65;;;;;;;27.07;52.79;98680.19;5112471;28;20478;-78
2021/06/20 05:20:18;;;;;;;3.88;1.67;;;;;;;27.75;51.57;98675.63;5095236;28;20028;-79
2021/06/20 05:22:44;;;;;;;2.58;1.60;;;;;;;28.48;50.12;98670.41;5112866;28;20030;-80
2021/06/20 05:25:10;;;;;;;2.10;1.75;;;;;;;29.03;46.58;98674.22;5094589;28;20486;-81
2021/06/20 05:27:35;;;;;;;2.13;2.03;;;;;;;29.30;45.95;98668.81;5094093;28;20031;-83
2021/06/20 05:30:00;;;;;;;1.80;1.70;;;;;;;29.69;45.25;98675.00;5094009;28;20432;-77
2021/06/20 05:32:26;;;;;;;2.78;1.48;;;;;;;30.11;44.99;98672.06;5112486;28;20020;-78
2021/06/20 05:34:51;;;;;;;3.08;2.75;;;;;;;30.45;44.38;98679.41;5111451;28;20102;-78
2021/06/20 05:37:17;;;;;;;4.88;1.83;;;;;;;30.68;42.65;98675.88;5094148;28;20026;-77
2021/06/20 05:39:43;;;;;;;2.88;1.25;;;;;;;30.86;42.75;98672.00;5094548;28;20376;-78
2021/06/20 05:42:08;;;;;;;1.73;1.63;;;;;;;31.03;41.83;98675.63;5094254;28;20034;-76
2021/06/20 05:44:34;;;;;;;2.47;1.70;;;;;;;31.14;41.74;98674.25;5094033;28;20035;-77
2021/06/20 05:47:01;;;;;;;7.47;1.63;;;;;;;31.25;41.01;98671.25;5112273;28;20050;-78
2021/06/20 05:49:26;;;;;;;2.83;2.50;;;;;;;31.21;40.49;98669.78;5111929;28;20058;-77
2021/06/20 05:51:51;;;;;;;3.40;1.10;;;;;;;31.21;40.30;98669.78;5094091;28;20285;-79
2021/06/20 05:54:17;;;;;;;3.00;1.27;;;;;;;31.13;40.09;98661.63;5112122;28;20032;-76
2021/06/20 05:56:42;;;;;;;1.58;0.90;;;;;;;30.89;39.90;98665.63;5112362;28;20050;-78
2021/06/20 05:59:08;;;;;;;3.92;1.45;;;;;;;30.75;39.99;98652.88;5111633;28;20027;-79
2021/06/20 06:01:35;;;;;;;2.28;1.02;;;;;;;30.37;40.55;98664.97;5111835;28;20035;-77
2021/06/20 06:04:00;;;;;;;;;;;;;;;30.34;40.20;98669.31;5111845;28;20073;-79
2021/06/20 06:06:26;;;;;;;1.30;1.20;;;;;;;30.30;39.94;98657.56;5111984;28;19911;-79
2021/06/20 06:08:51;;;;;;;3.40;1.45;;;;;;;30.25;40.03;98647.03;5093545;28;20636;-79
2021/06/20 06:11:17;;;;;;;4.07;1.40;;;;;;;30.26;39.94;98662.38;5093677;28;20038;-78
2021/06/20 06:13:42;;;;;;;0.70;0.70;;;;;;;30.34;39.43;98658.28;5092269;28;20050;-79
2021/06/20 06:16:08;;;;;;;0.77;0.77;;;;;;;30.60;39.59;98649.59;5092432;28;20024;-79
2021/06/20 06:18:33;;;;;;;2.70;0.90;;;;;;;30.64;37.86;98658.59;5093772;28;20034;-79
2021/06/20 06:20:59;;;;;;;1.05;0.80;;;;;;;30.80;38.11;98657.91;5093623;28;20478;-78
2021/06/20 06:23:24;;;;;;;2.33;1.08;;;;;;;31.01;37.56;98656.72;5093253;28;20036;-78
2021/06/20 06:25:50;;;;;;;0.98;0.98;;;;;;;31.16;37.78;98656.47;5111258;28;20686;-78
2021/06/20 06:28:15;;;;;;;1.17;1.05;;;;;;;31.26;37.18;98660.97;5093135;28;20080;-79
2021/06/20 06:30:41;;;;;;;0.88;0.88;;;;;;;31.23;38.04;98653.56;5111581;28;20042;-79
2021/06/20 06:33:06;;;;;;;1.85;1.10;;;;;;;31.40;37.50;98652.41;5092814;28;20028;-79
2021/06/20 06:35:32;;;;;;;1.02;0.63;;;;;;;31.37;37.04;98652.47;5093454;28;20024;-78
2021/06/20 06:37:58;;;;;;;0.50;0.50;;;;;;;31.45;35.86;98642.84;5092669;28;20023;-78
2021/06/20 06:40:23;;;;;;;0.75;0.65;;;;;;;31.51;35.23;98643.88;5093081;28;20035;-79
2021/06/20 06:42:49;;;;;;;0.90;0.73;;;;;;;31.42;36.59;98654.72;5093231;28;20126;-78
2021/06/20 06:45:16;;;;;;;1.98;1.13;;;;;;;31.36;35.94;98659.19;5111341;28;20034;-79
2021/06/20 06:47:42;;;;;;;;;;;;;;;31.09;36.85;98649.09;5112021;28;20020;-79
2021/06/20 06:50:08;;;;;;;0.90;0.88;;;;;;;31.09;36.95;98657.38;5111213;28;19915;-79
2021/06/20 06:52:34;;;;;;;2.13;1.83;;;;;;;30.88;36.52;98653.81;5092855;28;20462;-79
2021/06/20 06:55:00;;;;;;;0.70;0.70;;;;;;;30.80;36.75;98644.13;5111421;28;20268;-78
2021/06/20 06:57:27;;;;;;;1.23;1.13;;;;;;;30.64;36.60;98647.56;5092873;28;20406;-78
2021/06/20 06:59:53;;;;;;;0.65;0.65;;;;;;;30.50;37.40;98649.38;5111658;28;20436;-78
2021/06/20 07:02:22;;;;;;;0.80;0.80;;;;;;;30.38;36.62;98644.41;5109263;28;20031;-79
2021/06/20 07:04:48;;;;;;;1.67;0.70;;;;;;;30.27;37.66;98649.34;5111350;28;20031;-79
2021/06/20 07:07:13;;;;;;;1.30;0.90;;;;;;;30.19;37.53;98645.94;5110590;28;20028;-78
2021/06/20 07:09:38;;;;;;;0.75;0.75;;;;;;;30.05;38.44;98646.94;5111162;28;20450;-79
2021/06/20 07:12:04;;;;;;;0.90;0.88;;;;;;;30.01;38.32;98652.50;5091974;28;20055;-78
2021/06/20 07:14:34;;;;;;;1.05;0.90;;;;;;;29.90;37.65;98640.88;5111536;28;20038;-78
2021/06/20 07:17:01;;;;;;;1.33;1.20;;;;;;;29.79;37.31;98649.25;5111000;28;20545;-79
2021/06/20 07:19:27;;;;;;;0.88;0.88;;;;;;;29.66;37.76;98651.81;5111552;28;20032;-78
2021/06/20 07:21:52;;;;;;;1.80;0.85;;;;;;;29.31;37.88;98644.78;5112614;28;20032;-78
2021/06/20 07:24:17;;;;;;;0.55;0.55;;;;;;;28.96;37.97;98646.78;5094432;28;20474;-79
2021/06/20 07:26:43;;;;;;;0.77;0.73;;;;;;;28.75;38.20;98649.34;5102436;28;20030;-79
2021/06/20 07:29:08;;;;;;;0.80;0.80;;;;;;;28.36;38.73;98642.22;5115022;28;20106;-78
2021/06/20 07:31:34;;;;;;;0.80;0.80;;;;;;;27.95;40.38;98643.69;5096572;28;20026;-79
2021/06/20 07:33:59;;;;;;;1.10;1.00;;;;;;;27.76;41.11;98645.00;5115202;28;20501;-79
2021/06/20 07:36:24;;;;;;;1.33;0.80;;;;;;;27.67;42.77;98646.63;5115393;28;20024;-79
2021/06/20 07:38:50;;;;;;;1.52;1.00;;;;;;;27.64;42.49;98645.47;5091028;28;20081;-79
2021/06/20 07:41:15;;;;;;;1.73;0.93;;;;;;;27.61;43.49;98644.31;5108487;28;20435;-80
2021/06/20 07:43:41;;;;;;;1.10;1.10;;;;;;;27.60;43.63;98650.19;5096644;28;20020;-80
2021/06/20 07:46:06;;;;;;;1.65;1.40;;;;;;;27.68;43.19;98651.72;5094792;28;20019;-80
2021/06/20 07:48:32;;;;;;;1.10;1.00;;;;;;;27.72;43.38;98646.19;5095953;28;20024;-81
2021/06/20 07:50:58;;;;;;;4.25;1.33;;;;;;;27.72;43.66;98640.69;5096056;28;20050;-80
2021/06/20 07:53:24;;;;;;;1.83;1.65;;;;;;;27.67;43.40;98643.88;5114927;28;20034;-80
2021/06/20 07:55:50;;;;;;;2.35;1.38;;;;;;;27.53;43.53;98645.53;5113028;28;20509;-80
2021/06/20 07:58:16;;;;;;;1.67;1.33;;;;;;;27.35;44.79;98642.84;5096170;28;20028;-80
2021/06/20 08:00:42;;;;;;;2.25;1.38;;;;;;;27.19;44.19;98640.53;5113968;28;20509;-79
2021/06/20 08:03:07;;;;;;;1.00;0.90;;;;;;;26.97;44.70;98637.88;5095844;28;20118;-80
2021/06/20 08:05:33;;;;;;;1.02;1.02;;;;;;;26.73;44.54;98636.72;5096878;28;20504;-79
2021/06/20 08:07:58;;;;;;;2.13;1.17;;;;;;;26.47;45.39;98644.22;5096077;28;20035;-80
2021/06/20 08:10:24;;;;;;;1.60;1.42;;;;;;;26.38;46.31;98641.09;5095575;28;20035;-80
2021/06/20 08:12:49;;;;;;;1.17;1.17;;;;;;;26.40;47.42;98643.44;5096042;28;20031;-80
2021/06/20 08:15:15;;;;;;;1.38;1.27;;;;;;;26.40;47.54;98643.44;5095537;28;20028;-79
2021/06/20 08:17:41;;;;;;;5.93;3.58;;;;;;;26.30;47.54;98645.03;5096062;28;20100;-82
2021/06/20 08:20:08;;;;;;;1.40;1.23;;;;;;;26.22;46.47;98649.72;5089869;28;20051;-76
2021/06/20 08:22:34;;;;;;;1.58;1.48;;;;;;;26.10;46.42;98656.38;5111859;27;20083;-78
2021/06/20 08:24:59;;;;;;;2.90;1.42;;;;;;;25.97;47.16;98646.94;5113544;28;20047;-77
2021/06/20 08:27:25;;;;;;;1.65;1.55;;;;;;;25.96;47.55;98659.06;5095266;28;20039;-78
2021/06/20 08:29:53;;;;;;;3.42;1.63;;;;;;;25.94;48.18;98651.25;5113989;28;20047;-77
2021/06/20 08:32:19;;;;;;;1.27;1.25;;;;;;;25.91;48.22;98659.44;5093012;28;20955;-76
2021/06/20 08:34:45;;;;;;;1.65;1.45;;;;;;;25.85;46.67;98659.84;5112596;28;20081;-76
2021/06/20 08:37:10;;;;;;;2.30;1.70;;;;;;;25.75;47.19;98657.06;5113031;28;20028;-76
2021/06/20 08:39:35;;;;;;;1.20;1.20;;;;;;;25.78;49.01;98664.50;5115393;27;20512;-76
2021/06/20 08:42:01;;;;;;;1.40;1.30;;;;;;;25.72;48.14;98655.91;5112442;28;20106;-76
2021/06/20 08:44:29;;;;;;;1.00;1.00;;;;;;;25.64;46.89;98649.59;5112986;28;20032;-77
2021/06/20 08:46:56;;;;;;;2.30;2.10;;;;;;;25.56;47.25;98654.28;5113745;28;20019;-77
2021/06/20 08:49:23;;;;;;;1.38;1.27;;;;;;;25.48;46.85;98654.66;5109481;28;20028;-76
2021/06/20 08:51:50;;;;;;;1.13;1.10;;;;;;;25.39;45.52;98649.53;5112748;28;20608;-78
2021/06/20 08:54:16;;;;;;;1.40;1.35;;;;;;;25.32;47.59;98649.50;5113469;28;20034;-77
2021/06/20 08:56:42;;;;;;;1.45;1.35;;;;;;;25.28;46.19;98651.41;5113392;28;20028;-77
2021/06/20 08:59:10;;;;;;;1.48;1.38;;;;;;;25.17;47.35;98646.69;5113324;28;20050;-78
2021/06/20 09:01:36;;;;;;;2.33;1.30;;;;;;;25.12;47.53;98655.28;5113141;28;20021;-77
2021/06/20 09:04:02;;;;;;;1.63;1.40;;;;;;;25.01;48.20;98647.00;5113336;28;20084;-77
2021/06/20 09:06:28;;;;;;;1.23;1.13;;;;;;;24.97;48.99;98650.88;5108384;28;20111;-79
2021/06/20 09:08:57;;;;;;;1.60;1.42;;;;;;;24.88;48.89;98653.97;5108615;27;20383;-81
2021/06/20 09:11:31;;;;;;;1.50;1.40;;;;;;;24.86;47.97;98654.31;5084514;28;20027;-85
2021/06/20 09:14:25;;;;;;;0.95;0.93;;;;;;;24.84;47.97;98645.75;5089955;28;20165;-88
2021/06/20 09:16:54;;;;;;;1.50;1.40;;;;;;;24.82;50.04;98645.31;5071946;28;20101;-86
2021/06/20 09:19:33;;;;;;;2.45;1.20;;;;;;;24.94;49.94;98652.44;5088883;28;20071;-86
2021/06/20 09:22:04;;;;;;;3.38;1.63;;;;;;;25.09;50.21;98650.56;5083675;28;20034;-85
2021/06/20 09:25:11;;;;;;;1.10;1.00;;;;;;;25.20;47.32;98656.84;5094458;28;20073;-86
2021/06/20 09:28:16;;;;;;;1.50;1.40;;;;;;;25.32;47.59;98649.50;5093606;28;20135;-86
2021/06/20 09:31:19;;;;;;;1.13;1.13;;;;;;;25.46;47.64;98641.34;5074043;28;20491;-85
2021/06/20 09:34:24;;;;;;;1.10;1.10;;;;;;;25.59;47.60;98644.50;5088696;28;20041;-84
2021/06/20 09:37:28;;;;;;;0.90;0.90;;;;;;;25.72;45.47;98656.66;5093878;28;20086;-87
2021/06/20 09:40:31;;;;;;;3.60;1.17;;;;;;;25.76;46.21;98643.00;5097163;28;20039;-89
2021/06/20 09:43:36;;;;;;;1.15;0.70;;;;;;;25.78;44.63;98637.13;5085406;28;20035;-85
2021/06/20 09:46:39;;;;;;;3.15;1.00;;;;;;;25.68;44.87;98638.66;5092519;28;20131;-84
2021/06/20 09:49:42;;;;;;;1.20;1.13;;;;;;;25.54;45.05;98637.44;5080594;28;20058;-83
2021/06/20 09:52:45;;;;;;;1.55;1.08;;;;;;;25.48;46.12;98643.72;5077378;28;20035;-83
2021/06/20 09:55:50;;;;;;;1.10;1.00;;;;;;;25.40;46.75;98634.66;5077547;28;20062;-82
2021/06/20 09:58:52;;;;;;;1.02;1.02;;;;;;;25.42;46.35;98643.28;5102851;28;20096;-84
2021/06/20 10:01:57;;;;;;;0.88;0.88;;;;;;;25.41;45.09;98638.97;5086577;28;20406;-84
2021/06/20 10:04:59;;;;;;;2.72;1.00;;;;;;;25.41;45.19;98638.97;5089248;28;20434;-86
2021/06/20 10:08:03;;;;;;;0.57;0.57;;;;;;;25.44;45.30;98627.28;5093603;28;20043;-86
2021/06/20 10:11:06;;;;;;;0.82;0.82;;;;;;;25.48;46.11;98614.38;5092614;28;20047;-80
2021/06/20 10:14:10;;;;;;;1.88;0.80;;;;;;;25.57;44.63;98624.94;5094003;28;20066;-86
2021/06/20 10:17:13;;;;;;;1.77;1.10;;;;;;;25.66;45.88;98622.63;5093553;28;20044;-88
2021/06/20 10:20:16;;;;;;;0.90;0.90;;;;;;;25.70;45.69;98617.94;5093859;28;20100;-87
2021/06/20 10:23:19;;;;;;;1.02;0.93;;;;;;;25.67;46.65;98621.47;5094081;28;20040;-87
2021/06/20 10:26:22;;;;;;;2.15;0.93;;;;;;;25.63;46.42;98617.13;5093708;28;20495;-86
2021/06/20 10:29:25;;;;;;;1.08;1.00;;;;;;;25.67;45.30;98620.66;5093813;28;20123;-88
2021/06/20 10:32:29;;;;;;;1.20;1.10;;;;;;;25.71;46.52;98616.00;5093564;28;20035;-87
2021/06/20 10:35:34;;;;;;;1.30;1.20;;;;;;;25.69;45.99;98621.84;5093574;28;20047;-88
2021/06/20 10:38:39;;;;;;;0.98;0.98;;;;;;;25.72;44.73;98612.09;5093751;28;20047;-86
2021/06/20 10:41:42;;;;;;;1.27;1.17;;;;;;;25.71;46.12;98602.28;5093440;28;20504;-87
2021/06/20 10:44:45;;;;;;;3.42;1.13;;;;;;;25.64;45.54;98608.53;5093358;28;20043;-86
2021/06/20 10:47:48;;;;;;;1.40;0.95;;;;;;;25.65;46.02;98607.38;5093599;28;20463;-87
2021/06/20 10:50:15;;;;;;;2.20;0.98;;;;;;;25.59;45.82;98608.91;5093930;28;20043;-86
2021/06/20 10:52:53;;;;;;;1.25;1.13;;;;;;;25.49;46.65;98609.69;5093883;28;20036;-87
2021/06/20 10:55:18;;;;;;;;;;;;;;;25.37;46.02;98616.25;5093646;28;20024;-86
2021/06/20 10:57:52;;;;;;;1.48;1.10;;;;;;;25.20;46.57;98604.09;5092965;28;20354;-89
2021/06/20 11:00:36;;;;;;;1.35;1.25;;;;;;;25.06;48.40;98604.81;5093825;28;20398;-88
2021/06/20 11:03:28;;;;;;;1.17;1.17;;;;;;;24.94;48.47;98603.19;5093457;28;20027;-87
2021/06/20 11:05:56;;;;;;;2.63;2.42;;;;;;;24.75;50.54;98607.78;5093047;28;20028;-89
2021/06/20 11:08:25;;;;;;;;;;;;;;;24.52;51.44;98597.06;5093665;28;20119;-87
2021/06/20 11:11:03;;;;;;;6.88;5.40;;;;;;;24.33;52.40;98600.06;5093008;28;19915;-87
2021/06/20 11:13:28;;;;;;;;;;;;;;;24.10;52.89;98599.13;5093774;28;20410;-87
2021/06/20 11:16:02;;;;;;;6.85;5.20;;;;;;;23.98;53.21;98592.00;5093346;28;19908;-87
2021/06/20 11:18:28;;;;;;;3.38;3.08;;;;;;;23.84;52.60;98586.41;5093099;28;20024;-90
2021/06/20 11:20:53;;;;;;;1.50;1.40;;;;;;;23.76;52.11;98590.22;5092887;28;20031;-87
2021/06/20 11:23:19;;;;;;;1.00;0.90;;;;;;;23.69;51.30;98599.09;5093257;28;20027;-87
2021/06/20 11:25:45;;;;;;;1.20;1.10;;;;;;;23.61;52.83;98592.03;5092997;28;20418;-88
2021/06/20 11:28:20;;;;;;;1.08;1.00;;;;;;;23.58;53.13;98581.84;5092915;28;20028;-88
2021/06/20 11:30:45;;;;;;;1.63;1.48;;;;;;;23.57;53.88;98591.19;5092804;28;20574;-87
2021/06/20 11:33:22;;;;;;;2.53;1.50;;;;;;;23.59;54.43;98586.16;5092939;28;20093;-87
2021/06/20 11:35:53;;;;;;;2.28;1.98;;;;;;;23.62;53.81;98585.38;5093057;28;20055;-86
2021/06/20 11:38:29;;;;;;;1.73;1.63;;;;;;;23.62;51.72;98588.13;5092809;28;20035;-87
2021/06/20 11:40:54;;;;;;;2.55;1.85;;;;;;;23.56;52.87;98587.69;5092893;28;20099;-87
2021/06/20 11:43:20;;;;;;;2.03;1.85;;;;;;;23.51;53.99;98596.22;5092791;28;20113;-87
2021/06/20 11:45:45;;;;;;;3.33;1.80;;;;;;;23.53;54.54;98590.38;5093022;28;20024;-89
2021/06/20 11:48:11;;;;;;;1.20;1.10;;;;;;;23.52;54.54;98586.84;5092775;28;20110;-87
2021/06/20 11:50:37;;;;;;;1.00;1.00;;;;;;;23.59;53.71;98583.44;5092430;28;20028;-87